createdAt,value
2023-02-25T00:00:19.482Z,6.30
2023-02-25T00:03:55.344Z,7.40
2023-02-25T00:07:23.042Z,8.10
2023-02-25T00:11:00.849Z,9.00
2023-02-25T00:14:28.888Z,11.20
2023-02-25T00:17:57.780Z,10.20
2023-02-25T00:21:25.002Z,11.50
2023-02-25T00:24:56.099Z,10.90
2023-02-25T00:28:23.353Z,10.50
2023-02-25T00:31:51.084Z,11.60
2023-02-25T00:35:20.332Z,10.80
2023-02-25T00:38:48.763Z,10.40
2023-02-25T00:42:21.111Z,10.20
2023-02-25T00:45:48.112Z,9.70
2023-02-25T00:49:23.918Z,9.70
2023-02-25T00:52:58.995Z,8.70
2023-02-25T00:56:27.394Z,8.10
2023-02-25T00:59:54.409Z,8.30
2023-02-25T01:03:21.158Z,8.70
2023-02-25T01:06:48.240Z,8.90
2023-02-25T01:10:17.216Z,9.60
2023-02-25T01:13:44.788Z,9.40
2023-02-25T01:17:11.860Z,12.40
2023-02-25T01:20:42.917Z,12.00
2023-02-25T01:24:12.876Z,13.70
2023-02-25T01:27:39.547Z,13.20
2023-02-25T01:31:08.662Z,12.60
2023-02-25T01:34:35.816Z,11.60
2023-02-25T01:38:02.517Z,12.10
2023-02-25T01:41:31.774Z,12.10
2023-02-25T01:45:33.006Z,12.90
2023-02-25T01:49:00.119Z,12.70
2023-02-25T01:52:32.699Z,12.40
2023-02-25T01:56:03.359Z,11.40
2023-02-25T01:59:32.141Z,11.10
2023-02-25T02:03:06.027Z,11.60
2023-02-25T02:06:38.601Z,12.00
2023-02-25T02:10:10.476Z,11.90
2023-02-25T02:13:43.370Z,11.80
2023-02-25T02:17:20.253Z,11.00
2023-02-25T02:21:00.492Z,10.70
2023-02-25T02:24:57.235Z,11.00
2023-02-25T02:28:39.691Z,11.70
2023-02-25T02:32:24.854Z,11.80
2023-02-25T02:36:02.949Z,11.90
2023-02-25T02:39:47.613Z,11.90
2023-02-25T02:43:32.830Z,12.70
2023-02-25T02:47:07.291Z,12.90
2023-02-25T02:50:39.789Z,13.00
2023-02-25T02:54:10.036Z,13.20
2023-02-25T02:57:41.571Z,11.80
2023-02-25T03:01:13.555Z,12.60
2023-02-25T03:04:44.011Z,11.60
2023-02-25T03:08:16.377Z,10.70
2023-02-25T03:11:47.346Z,10.50
2023-02-25T03:15:15.932Z,9.30
2023-02-25T03:18:46.259Z,9.50
2023-02-25T03:22:17.388Z,8.60
2023-02-25T03:25:48.993Z,9.40
2023-02-25T03:29:24.054Z,11.70
2023-02-25T03:32:55.198Z,14.10
2023-02-25T03:36:26.489Z,10.80
2023-02-25T03:40:04.502Z,11.50
2023-02-25T03:43:35.242Z,11.00
2023-02-25T03:47:04.671Z,12.00
2023-02-25T03:50:37.236Z,13.40
2023-02-25T03:57:42.240Z,13.30
2023-02-25T04:01:15.668Z,14.40
2023-02-25T04:04:43.790Z,15.70
2023-02-25T04:08:16.460Z,16.30
2023-02-25T04:11:45.549Z,13.90
2023-02-25T04:15:15.708Z,14.20
2023-02-25T04:18:42.849Z,14.30
2023-02-25T04:22:10.038Z,15.10
2023-02-25T04:25:38.023Z,16.00
2023-02-25T04:29:05.797Z,15.30
2023-02-25T04:32:33.086Z,15.70
2023-02-25T04:36:01.930Z,14.10
2023-02-25T04:39:28.822Z,15.10
2023-02-25T04:42:56.798Z,14.60
2023-02-25T04:46:24.241Z,15.80
2023-02-25T04:49:51.310Z,16.00
2023-02-25T04:53:17.520Z,17.10
2023-02-25T04:56:44.692Z,18.50
2023-02-25T05:00:20.063Z,20.90
2023-02-25T05:03:46.672Z,21.00
2023-02-25T05:07:13.676Z,21.20
2023-02-25T05:10:40.263Z,20.50
2023-02-25T05:14:07.057Z,21.60
2023-02-25T05:17:34.200Z,22.50
2023-02-25T05:21:01.299Z,21.50
2023-02-25T05:24:28.499Z,22.90
2023-02-25T05:27:55.579Z,23.30
2023-02-25T05:31:23.871Z,21.00
2023-02-25T05:34:50.593Z,20.40
2023-02-25T05:38:17.057Z,19.80
2023-02-25T05:41:43.754Z,18.90
2023-02-25T05:45:12.676Z,18.00
2023-02-25T05:48:39.853Z,17.80
2023-02-25T05:52:06.223Z,18.50
2023-02-25T05:55:32.814Z,17.60
2023-02-25T05:58:59.773Z,18.20
2023-02-25T06:02:26.400Z,17.40
2023-02-25T06:05:54.167Z,19.10
2023-02-25T06:09:22.024Z,20.00
2023-02-25T06:12:49.286Z,24.10
2023-02-25T06:16:16.357Z,24.60
2023-02-25T06:19:42.876Z,24.80
2023-02-25T06:23:09.853Z,26.30
2023-02-25T06:26:45.683Z,24.80
2023-02-25T06:30:14.802Z,22.00
2023-02-25T06:33:41.463Z,20.50
2023-02-25T06:37:08.711Z,20.50
2023-02-25T06:40:35.562Z,18.20
2023-02-25T06:44:04.486Z,18.90
2023-02-25T06:47:30.900Z,17.60
2023-02-25T06:50:57.744Z,14.80
2023-02-25T06:54:24.666Z,16.00
2023-02-25T06:57:51.175Z,16.20
2023-02-25T07:01:18.772Z,15.60
2023-02-25T07:04:45.588Z,16.00
2023-02-25T07:08:12.498Z,15.40
2023-02-25T07:11:39.170Z,13.90
2023-02-25T07:15:07.206Z,13.80
2023-02-25T07:18:33.685Z,13.60
2023-02-25T07:22:00.211Z,13.00
2023-02-25T07:25:27.812Z,11.40
2023-02-25T07:28:54.942Z,11.40
2023-02-25T07:32:21.693Z,11.00
2023-02-25T07:35:48.949Z,10.90
2023-02-25T07:39:16.279Z,10.80
2023-02-25T07:42:45.471Z,10.50
2023-02-25T07:46:14.030Z,10.60
2023-02-25T07:49:41.484Z,9.20
2023-02-25T07:53:08.495Z,9.80
2023-02-25T07:56:35.239Z,9.00
2023-02-25T08:00:01.723Z,7.40
2023-02-25T08:03:28.125Z,7.30
2023-02-25T08:06:55.581Z,6.30
2023-02-25T08:10:22.617Z,3.60
2023-02-25T08:13:50.684Z,3.00
2023-02-25T08:17:18.897Z,3.30
2023-02-25T08:20:49.946Z,3.50
2023-02-25T08:24:16.524Z,4.30
2023-02-25T08:27:44.425Z,3.70
2023-02-25T08:31:13.489Z,3.40
2023-02-25T08:34:40.381Z,3.90
2023-02-25T08:38:07.517Z,3.30
2023-02-25T08:41:34.366Z,3.80
2023-02-25T08:45:01.867Z,3.10
2023-02-25T08:48:29.296Z,3.30
2023-02-25T08:51:56.042Z,3.60
2023-02-25T08:55:25.272Z,4.00
2023-02-25T08:58:52.587Z,3.90
2023-02-25T09:02:22.938Z,3.60
2023-02-25T09:05:55.836Z,3.40
2023-02-25T09:09:23.343Z,4.20
2023-02-25T09:12:50.014Z,4.70
2023-02-25T09:16:17.832Z,2.80
2023-02-25T09:19:44.726Z,4.80
2023-02-25T09:23:12.144Z,3.70
2023-02-25T09:26:39.390Z,3.30
2023-02-25T09:30:06.816Z,3.20
2023-02-25T09:33:36.845Z,3.10
2023-02-25T09:37:04.793Z,4.40
2023-02-25T09:40:32.353Z,4.80
2023-02-25T09:44:08.763Z,5.10
2023-02-25T09:47:43.517Z,5.00
2023-02-25T09:51:20.375Z,9.40
2023-02-25T09:54:49.536Z,8.60
2023-02-25T09:58:32.619Z,6.90
2023-02-25T10:02:05.190Z,6.10
2023-02-25T10:05:44.564Z,8.20
2023-02-25T10:09:23.286Z,7.00
2023-02-25T10:13:03.915Z,6.20
2023-02-25T10:16:44.655Z,6.20
2023-02-25T10:20:35.357Z,5.80
2023-02-25T10:24:22.153Z,5.70
2023-02-25T10:27:53.614Z,6.50
2023-02-25T10:31:23.095Z,4.90
2023-02-25T10:34:51.968Z,4.90
2023-02-25T10:38:28.123Z,5.00
2023-02-25T10:41:55.507Z,4.80
2023-02-25T10:45:27.526Z,4.50
2023-02-25T10:49:00.170Z,4.70
2023-02-25T10:52:27.418Z,5.00
2023-02-25T10:55:55.126Z,5.60
2023-02-25T10:59:31.713Z,4.30
2023-02-25T11:03:00.223Z,3.70
2023-02-25T11:06:30.878Z,3.70
2023-02-25T11:10:16.334Z,3.40
2023-02-25T11:13:43.342Z,3.20
2023-02-25T11:17:17.530Z,4.00
2023-02-25T11:20:53.351Z,4.50
2023-02-25T11:24:24.534Z,3.30
2023-02-25T11:27:58.943Z,3.90
2023-02-25T11:31:30.846Z,3.70
2023-02-25T11:35:05.203Z,5.00
2023-02-25T11:38:36.915Z,4.20
2023-02-25T11:42:24.426Z,4.30
2023-02-25T11:46:04.375Z,4.10
2023-02-25T11:49:57.354Z,4.50
2023-02-25T11:53:38.921Z,5.30
2023-02-25T11:57:13.861Z,5.50
2023-02-25T12:00:52.388Z,4.70
2023-02-25T12:04:42.294Z,4.50
2023-02-25T12:08:33.958Z,4.30
2023-02-25T12:12:31.178Z,3.80
2023-02-25T12:16:20.024Z,3.80
2023-02-25T12:20:31.417Z,3.70
2023-02-25T12:24:34.123Z,3.20
2023-02-25T12:28:34.610Z,3.60
2023-02-25T12:32:20.242Z,3.20
2023-02-25T12:36:04.192Z,3.20
2023-02-25T12:39:57.901Z,3.00
2023-02-25T12:43:38.696Z,3.40
2023-02-25T12:47:25.487Z,2.70
2023-02-25T12:51:10.843Z,4.10
2023-02-25T12:55:06.092Z,3.30
2023-02-25T12:58:45.403Z,4.00
2023-02-25T13:02:36.484Z,2.00
2023-02-25T13:06:45.462Z,1.40
2023-02-25T13:10:39.560Z,1.90
2023-02-25T13:14:32.273Z,1.90
2023-02-25T13:18:17.998Z,1.80
2023-02-25T13:22:04.637Z,1.40
2023-02-25T13:25:51.251Z,1.40
2023-02-25T13:29:31.831Z,1.60
2023-02-25T13:33:12.590Z,1.40
2023-02-25T13:36:53.219Z,1.30
2023-02-25T13:40:45.611Z,1.20
2023-02-25T13:44:39.701Z,0.90
2023-02-25T13:48:35.418Z,1.20
2023-02-25T13:52:27.988Z,1.10
2023-02-25T13:56:24.773Z,1.20
2023-02-25T14:00:31.366Z,0.90
2023-02-25T14:04:24.256Z,1.10
2023-02-25T14:11:43.749Z,0.70
2023-02-25T14:15:40.344Z,0.90
2023-02-25T14:19:23.986Z,0.70
2023-02-25T14:22:54.701Z,0.70
2023-02-25T14:26:34.961Z,0.90
2023-02-25T14:30:20.186Z,0.80
2023-02-25T14:34:19.228Z,0.90
2023-02-25T14:37:58.643Z,1.00
2023-02-25T14:41:38.099Z,1.00
2023-02-25T14:45:16.912Z,1.40
2023-02-25T14:48:51.185Z,1.10
2023-02-25T14:52:43.473Z,1.50
2023-02-25T14:56:34.793Z,2.60
2023-02-25T15:00:26.628Z,0.90
2023-02-25T15:04:18.409Z,0.90
2023-02-25T15:08:12.988Z,1.10
2023-02-25T15:12:02.324Z,1.10
2023-02-25T15:15:59.852Z,1.00
2023-02-25T15:19:47.191Z,1.50
2023-02-25T15:23:16.755Z,1.40
2023-02-25T15:26:48.831Z,1.00
2023-02-25T15:30:18.670Z,1.50
2023-02-25T15:33:47.625Z,3.90
2023-02-25T15:37:33.755Z,1.40
2023-02-25T15:41:02.849Z,2.10
2023-02-25T15:44:44.188Z,2.00
2023-02-25T15:48:36.636Z,1.80
2023-02-25T15:52:05.298Z,1.90
2023-02-25T15:55:41.835Z,3.10
2023-02-25T15:59:09.167Z,1.40
2023-02-25T16:02:46.856Z,1.60
2023-02-25T16:06:24.017Z,1.70
2023-02-25T16:09:55.487Z,1.90
2023-02-25T16:13:30.900Z,5.10
2023-02-25T16:17:01.235Z,4.70
2023-02-25T16:20:35.168Z,2.40
2023-02-25T16:24:02.865Z,2.00
2023-02-25T16:27:55.902Z,1.70
2023-02-25T16:31:28.011Z,3.50
2023-02-25T16:35:02.942Z,4.70
2023-02-25T16:38:39.006Z,2.30
2023-02-25T16:42:09.895Z,1.90
2023-02-25T16:45:40.820Z,1.70
2023-02-25T16:49:12.943Z,1.80
2023-02-25T16:52:47.525Z,2.60
2023-02-25T16:56:20.394Z,3.40
2023-02-25T16:59:51.355Z,3.00
2023-02-25T17:03:18.992Z,2.10
2023-02-25T17:07:06.259Z,2.10
2023-02-25T17:10:41.552Z,3.40
2023-02-25T17:14:09.367Z,3.20
2023-02-25T17:17:40.648Z,2.50
2023-02-25T17:21:10.833Z,2.40
2023-02-25T17:24:38.008Z,2.30
2023-02-25T17:28:06.159Z,1.80
2023-02-25T17:31:43.299Z,1.90
2023-02-25T17:35:13.617Z,2.40
2023-02-25T17:38:42.752Z,2.40
2023-02-25T17:42:39.291Z,1.90
2023-02-25T17:46:16.024Z,1.90
2023-02-25T17:49:44.288Z,2.30
2023-02-25T17:53:25.584Z,2.50
2023-02-25T17:56:59.350Z,2.30
2023-02-25T18:00:32.295Z,1.50
2023-02-25T18:04:06.958Z,1.40
2023-02-25T18:07:34.543Z,1.60
2023-02-25T18:11:27.313Z,1.40
2023-02-25T18:14:59.368Z,1.40
2023-02-25T18:18:26.424Z,1.90
2023-02-25T18:21:55.499Z,1.70
2023-02-25T18:25:35.084Z,1.80
2023-02-25T18:29:03.050Z,1.50
2023-02-25T18:32:31.558Z,1.60
2023-02-25T18:35:59.748Z,1.80
2023-02-25T18:39:28.961Z,2.10
2023-02-25T18:42:56.006Z,1.60
2023-02-25T18:46:23.780Z,1.50
2023-02-25T18:49:51.036Z,1.60
2023-02-25T18:53:20.697Z,1.80
2023-02-25T18:56:47.704Z,1.90
2023-02-25T19:00:18.467Z,2.20
2023-02-25T19:03:46.298Z,2.20
2023-02-25T19:07:14.196Z,2.60
2023-02-25T19:10:41.604Z,2.80
2023-02-25T19:14:09.434Z,4.10
2023-02-25T19:17:36.135Z,4.80
2023-02-25T19:21:03.500Z,2.50
2023-02-25T19:24:30.537Z,2.50
2023-02-25T19:28:02.069Z,2.60
2023-02-25T19:31:38.526Z,2.50
2023-02-25T19:35:11.896Z,2.60
2023-02-25T19:38:38.891Z,2.60
2023-02-25T19:42:06.381Z,3.10
2023-02-25T19:45:35.263Z,2.60
2023-02-25T19:49:02.159Z,2.80
2023-02-25T19:52:30.952Z,2.30
2023-02-25T19:56:00.697Z,2.70
2023-02-25T19:59:31.144Z,2.70
2023-02-25T20:02:58.841Z,3.40
2023-02-25T20:06:26.631Z,4.10
2023-02-25T20:09:54.259Z,4.70
2023-02-25T20:13:21.054Z,4.30
2023-02-25T20:16:48.670Z,4.30
2023-02-25T20:20:17.585Z,4.40
2023-02-25T20:23:46.978Z,4.30
2023-02-25T20:27:15.570Z,4.30
2023-02-25T20:30:45.081Z,3.90
2023-02-25T20:34:18.231Z,3.50
2023-02-25T20:37:56.273Z,3.40
2023-02-25T20:41:25.462Z,3.10
2023-02-25T20:44:59.618Z,3.10
2023-02-25T20:48:32.959Z,2.50
2023-02-25T20:52:02.284Z,5.30
2023-02-25T20:55:30.947Z,3.30
2023-02-25T20:58:58.537Z,2.70
2023-02-25T21:02:27.851Z,2.30
2023-02-25T21:05:56.676Z,2.90
2023-02-25T21:09:25.217Z,3.10
2023-02-25T21:12:56.130Z,2.10
2023-02-25T21:16:25.939Z,2.20
2023-02-25T21:19:57.444Z,2.10
2023-02-25T21:23:28.760Z,1.70
2023-02-25T21:27:10.134Z,1.80
2023-02-25T21:30:37.578Z,2.20
2023-02-25T21:34:09.775Z,1.80
2023-02-25T21:37:39.512Z,1.70
2023-02-25T21:41:12.963Z,1.80
2023-02-25T21:44:40.310Z,1.70
2023-02-25T21:48:11.607Z,1.40
2023-02-25T21:51:42.922Z,1.40
2023-02-25T21:55:13.272Z,1.50
2023-02-25T21:58:43.313Z,1.40
2023-02-25T22:02:13.075Z,1.30
2023-02-25T22:05:48.563Z,1.40
2023-02-25T22:09:20.930Z,1.30
2023-02-25T22:12:49.022Z,1.20
2023-02-25T22:16:18.745Z,1.10
2023-02-25T22:19:47.144Z,1.50
2023-02-25T22:23:14.404Z,1.80
2023-02-25T22:26:41.441Z,1.40
2023-02-25T22:30:14.152Z,1.70
2023-02-25T22:33:42.585Z,1.30
2023-02-25T22:37:10.159Z,1.40
2023-02-25T22:40:41.690Z,1.60
2023-02-25T22:44:09.182Z,1.80
2023-02-25T22:47:37.527Z,2.10
2023-02-25T22:51:13.542Z,2.70
2023-02-25T22:54:41.280Z,4.60
2023-02-25T22:58:09.426Z,2.70
2023-02-25T23:01:39.206Z,2.30
2023-02-25T23:05:10.613Z,2.20
2023-02-25T23:08:39.472Z,1.70
2023-02-25T23:12:07.865Z,1.90
2023-02-25T23:15:36.726Z,1.80
2023-02-25T23:19:05.666Z,1.70
2023-02-25T23:22:35.087Z,1.50
2023-02-25T23:26:01.935Z,1.70
2023-02-25T23:29:29.792Z,1.60
2023-02-25T23:32:57.724Z,1.60
2023-02-25T23:36:24.885Z,1.70
2023-02-25T23:39:52.627Z,1.40
2023-02-25T23:43:20.356Z,1.40
2023-02-25T23:46:48.041Z,1.90
2023-02-25T23:50:17.967Z,1.70
2023-02-25T23:53:50.600Z,1.30
2023-02-25T23:57:18.849Z,1.40
